Time;durP1;ratioP1;P1;durP2;ratioP2;P2;SDS_P1;SDS_P2;PMS_P1;PMS_P2;Temp;Humidity;BMP_temperature;BMP_pressure;BME280_temperature;BME280_humidity;BME280_pressure;Samples;Min_cycle;Max_cycle;Signal;HPM_P1;HPM_P2
2022/04/22 00:00:46;;;;;;;9.37;8.07;;;13.60;72.30;;;;;;5007798;28;20189;-71
2022/04/22 00:03:11;;;;;;;8.77;7.97;;;13.60;73.10;;;;;;5005884;28;20227;-70
2022/04/22 00:05:37;;;;;;;9.10;7.97;;;13.60;73.40;;;;;;5008714;28;20463;-70
2022/04/22 00:08:03;;;;;;;12.17;8.10;;;13.60;73.80;;;;;;5007484;28;20169;-70
2022/04/22 00:10:29;;;;;;;10.00;8.43;;;13.60;74.40;;;;;;5007379;28;20451;-70
2022/04/22 00:12:55;;;;;;;10.07;8.43;;;13.40;75.10;;;;;;5002862;28;20459;-71
2022/04/22 00:15:21;;;;;;;12.40;8.63;;;13.40;75.80;;;;;;5007893;28;20188;-71
2022/04/22 00:17:47;;;;;;;9.13;8.23;;;13.50;76.10;;;;;;5004708;28;20563;-71
2022/04/22 00:20:13;;;;;;;9.67;8.70;;;13.40;76.40;;;;;;5006980;28;20447;-70
2022/04/22 00:22:40;;;;;;;10.77;8.80;;;13.40;76.90;;;;;;5004519;28;20467;-70
2022/04/22 00:25:10;;;;;;;13.47;9.57;;;13.40;77.00;;;;;;5007505;28;20455;-71
2022/04/22 00:27:37;;;;;;;9.33;8.43;;;13.30;78.30;;;;;;5006388;28;20506;-70
2022/04/22 00:30:08;;;;;;;11.23;9.50;;;13.30;78.60;;;;;;5002199;28;20460;-70
2022/04/22 00:32:34;;;;;;;14.80;9.80;;;13.20;79.30;;;;;;5012671;28;20451;-70
2022/04/22 00:35:04;;;;;;;10.77;9.33;;;13.30;79.60;;;;;;5003283;28;20579;-69
2022/04/22 00:37:30;;;;;;;11.67;10.47;;;13.20;80.00;;;;;;5022126;28;20477;-70
2022/04/22 00:39:55;;;;;;;12.10;9.90;;;13.20;80.80;;;;;;5007599;28;20451;-69
2022/04/22 00:42:21;;;;;;;13.63;9.60;;;13.10;81.60;;;;;;5004539;28;20281;-72
2022/04/22 00:44:47;;;;;;;14.00;11.30;;;13.20;82.10;;;;;;5006381;28;20201;-70
2022/04/22 00:47:12;;;;;;;12.57;10.10;;;13.00;82.80;;;;;;5004203;28;20185;-69
2022/04/22 00:49:38;;;;;;;10.40;9.30;;;13.00;83.70;;;;;;5008789;28;20185;-70
2022/04/22 00:52:05;;;;;;;15.83;10.37;;;13.00;83.90;;;;;;5009814;28;20231;-70
2022/04/22 00:54:32;;;;;;;13.63;11.43;;;12.90;85.10;;;;;;5008967;28;20193;-70
2022/04/22 00:56:58;;;;;;;13.83;11.60;;;12.80;86.20;;;;;;5010089;28;20525;-71
2022/04/22 00:59:25;;;;;;;11.80;10.47;;;12.60;87.20;;;;;;5009741;28;20442;-71
2022/04/22 01:01:50;;;;;;;13.37;11.03;;;12.60;88.20;;;;;;5010664;28;20473;-71
2022/04/22 01:09:48;;;;;;;13.13;11.20;;;12.70;89.50;;;;;;5014098;28;20521;-70
2022/04/22 01:12:15;;;;;;;11.70;10.50;;;12.60;90.00;;;;;;5008264;28;20451;-69
2022/04/22 01:14:41;;;;;;;14.43;11.30;;;12.60;90.30;;;;;;5007920;28;20439;-71
2022/04/22 01:17:08;;;;;;;14.83;11.60;;;12.60;90.60;;;;;;5009140;28;20439;-70
2022/04/22 01:19:34;;;;;;;16.03;12.33;;;12.50;90.90;;;;;;5008509;28;20458;-70
2022/04/22 01:22:01;;;;;;;14.23;12.00;;;12.50;91.10;;;;;;5012156;28;20457;-69
2022/04/22 01:24:27;;;;;;;15.67;12.17;;;12.50;91.50;;;;;;5006542;28;20518;-70
2022/04/22 01:26:55;;;;;;;14.60;12.80;;;12.40;92.00;;;;;;5014965;28;20447;-71
2022/04/22 01:29:21;;;;;;;13.80;11.70;;;12.50;92.10;;;;;;5008257;28;21985;-70
2022/04/22 01:31:47;;;;;;;14.63;11.77;;;12.40;92.40;;;;;;5007917;28;20514;-71
2022/04/22 01:34:13;;;;;;;15.77;12.60;;;12.40;92.60;;;;;;5011507;28;20967;-71
2022/04/22 01:36:39;;;;;;;19.70;12.97;;;12.30;93.00;;;;;;5011371;28;20522;-70
2022/04/22 01:39:05;;;;;;;15.77;12.43;;;12.30;93.30;;;;;;5014002;28;20444;-70
2022/04/22 01:41:31;;;;;;;16.53;12.87;;;12.30;93.70;;;;;;5006734;28;20204;-71
2022/04/22 01:43:57;;;;;;;14.60;11.43;;;12.30;93.80;;;;;;5008219;28;20493;-69
2022/04/22 01:46:23;;;;;;;17.03;12.37;;;12.30;94.10;;;;;;5009141;28;20200;-69
2022/04/22 01:48:48;;;;;;;20.80;14.23;;;12.30;94.30;;;;;;5010868;28;20526;-69
2022/04/22 01:51:14;;;;;;;16.93;12.23;;;12.30;94.50;;;;;;5008904;28;20558;-70
2022/04/22 01:53:40;;;;;;;15.50;12.70;;;12.30;94.90;;;;;;5010205;28;20224;-72
2022/04/22 01:56:06;;;;;;;14.47;12.80;;;12.20;95.00;;;;;;5011950;28;20193;-70
2022/04/22 01:58:32;;;;;;;13.80;12.30;;;12.10;95.60;;;;;;5007390;28;20192;-69
2022/04/22 02:00:58;;;;;;;15.27;12.87;;;12.20;96.10;;;;;;5004896;28;20475;-71
2022/04/22 02:03:24;;;;;;;17.47;13.30;;;12.20;96.00;;;;;;5012656;28;20534;-69
2022/04/22 02:05:49;;;;;;;20.33;13.20;;;12.20;96.30;;;;;;5007350;28;20221;-69
2022/04/22 02:08:15;;;;;;;15.63;12.70;;;12.20;96.50;;;;;;5008349;28;20196;-72
2022/04/22 02:10:41;;;;;;;16.50;13.50;;;12.20;96.90;;;;;;5011374;28;20187;-70
2022/04/22 02:13:08;;;;;;;17.93;13.33;;;12.00;97.50;;;;;;5006896;28;20215;-71
2022/04/22 02:15:34;;;;;;;18.17;13.70;;;12.10;97.70;;;;;;5008962;28;20198;-69
2022/04/22 02:18:03;;;;;;;17.70;12.93;;;12.20;97.50;;;;;;5007900;28;21129;-71
2022/04/22 02:20:28;;;;;;;16.97;13.00;;;12.10;97.90;;;;;;5012889;28;20448;-70
2022/04/22 02:22:54;;;;;;;14.30;12.77;;;11.90;98.70;;;;;;5006475;28;20833;-71
2022/04/22 02:25:20;;;;;;;16.80;13.20;;;11.90;99.30;;;;;;5009498;28;20287;-70
2022/04/22 02:30:30;;;;;;;18.00;13.70;;;12.00;99.30;;;;;;5011957;28;20187;-71
2022/04/22 02:32:56;;;;;;;19.33;13.60;;;12.00;99.60;;;;;;5011247;28;21159;-71
2022/04/22 02:35:22;;;;;;;15.50;13.10;;;11.90;99.70;;;;;;5013558;28;20485;-70
2022/04/22 02:37:48;;;;;;;19.30;14.07;;;11.90;99.90;;;;;;5009528;28;20630;-70
2022/04/22 02:45:26;;;;;;;16.20;13.33;;;11.80;99.90;;;;;;5010632;28;20202;-69
2022/04/22 02:45:44;;;;;;;20.53;14.50;;;12.00;99.90;;;;;;5011629;28;20537;-70
2022/04/22 02:48:10;;;;;;;17.40;13.80;;;11.70;99.90;;;;;;5008694;28;20435;-72
2022/04/22 02:50:35;;;;;;;16.17;13.53;;;11.70;99.90;;;;;;5010163;28;20181;-71
2022/04/22 02:53:01;;;;;;;20.03;14.53;;;11.60;99.90;;;;;;5012922;28;20228;-70
2022/04/22 02:55:26;;;;;;;16.37;13.37;;;11.70;99.90;;;;;;5007587;28;20188;-71
2022/04/22 02:57:52;;;;;;;18.90;15.87;;;11.70;99.90;;;;;;5014110;28;20266;-71
2022/04/22 03:00:18;;;;;;;18.80;14.53;;;11.50;99.90;;;;;;5010178;28;20178;-70
2022/04/22 03:02:44;;;;;;;17.80;13.10;;;11.50;99.90;;;;;;5005491;28;20201;-71
2022/04/22 03:05:10;;;;;;;20.60;14.83;;;11.60;99.90;;;;;;5010516;28;20495;-70
2022/04/22 03:07:40;;;;;;;19.90;14.20;;;11.60;99.90;;;;;;5010045;28;20196;-69
2022/04/22 03:10:06;;;;;;;19.03;13.83;;;11.60;99.90;;;;;;5009256;28;20993;-70
2022/04/22 03:12:33;;;;;;;18.13;14.43;;;11.60;99.90;;;;;;5008451;28;20457;-71
2022/04/22 03:14:58;;;;;;;18.53;15.00;;;11.60;99.90;;;;;;5005889;28;20439;-69
2022/04/22 03:17:24;;;;;;;16.70;14.70;;;11.60;99.90;;;;;;5007338;28;20825;-70
2022/04/22 03:19:50;;;;;;;19.57;14.20;;;11.60;99.90;;;;;;5010692;28;20177;-70
2022/04/22 03:22:16;;;;;;;17.97;14.47;;;11.50;99.90;;;;;;5013020;28;20234;-72
2022/04/22 03:24:42;;;;;;;17.87;14.07;;;11.40;99.90;;;;;;5012187;28;20200;-69
2022/04/22 03:27:08;;;;;;;17.27;14.30;;;11.50;99.90;;;;;;5011230;28;21132;-71
2022/04/22 03:29:35;;;;;;;20.83;15.60;;;11.50;99.90;;;;;;5010649;28;20446;-70
2022/04/22 03:32:01;;;;;;;16.83;14.40;;;11.50;99.90;;;;;;5008409;28;20462;-71
2022/04/22 03:34:27;;;;;;;20.40;15.80;;;11.50;99.90;;;;;;5014789;28;20891;-70
2022/04/22 03:36:52;;;;;;;20.90;14.50;;;11.50;99.90;;;;;;5011220;28;20423;-71
2022/04/22 03:39:18;;;;;;;21.60;16.10;;;11.40;99.90;;;;;;5011692;28;20184;-70
2022/04/22 03:41:44;;;;;;;18.60;14.00;;;11.40;99.90;;;;;;5013741;28;20219;-70
2022/04/22 03:44:10;;;;;;;19.20;14.87;;;11.50;99.90;;;;;;5007123;28;22938;-73
2022/04/22 03:46:36;;;;;;;21.80;15.30;;;11.50;99.90;;;;;;5007570;28;20466;-71
2022/04/22 03:49:04;;;;;;;18.50;14.30;;;11.40;99.90;;;;;;5007230;28;20259;-72
2022/04/22 03:51:30;;;;;;;19.00;15.20;;;11.40;99.90;;;;;;5010680;28;20212;-72
2022/04/22 03:53:56;;;;;;;17.40;14.60;;;11.40;99.90;;;;;;5008687;28;20485;-70
2022/04/22 03:59:06;;;;;;;21.37;15.57;;;11.20;99.90;;;;;;5012473;28;20311;-71
2022/04/22 04:01:32;;;;;;;21.00;16.03;;;11.20;99.90;;;;;;5013365;28;20503;-71
2022/04/22 04:03:58;;;;;;;22.30;17.00;;;11.30;99.90;;;;;;5012105;28;20244;-72
2022/04/22 04:06:24;;;;;;;22.40;16.40;;;11.40;99.90;;;;;;5009913;28;21243;-72
2022/04/22 04:17:06;;;;;;;20.90;15.23;;;11.00;99.90;;;;;;5008288;28;21019;-71
2022/04/22 04:25:00;;;;;;;26.20;17.10;;;11.00;99.90;;;;;;5005432;28;20584;-72
2022/04/22 04:27:26;;;;;;;23.03;16.80;;;11.10;99.90;;;;;;5007033;28;20873;-72
2022/04/22 04:29:51;;;;;;;28.70;17.53;;;11.00;99.90;;;;;;5010744;28;20196;-71
2022/04/22 04:32:17;;;;;;;25.07;17.20;;;10.80;99.90;;;;;;5010426;28;20251;-71
2022/04/22 04:34:44;;;;;;;23.13;17.73;;;10.90;99.90;;;;;;5008637;28;20228;-71
2022/04/22 04:37:11;;;;;;;22.37;16.90;;;10.80;99.90;;;;;;5014305;28;20185;-71
2022/04/22 04:39:36;;;;;;;23.73;16.63;;;10.90;99.90;;;;;;5009315;28;20516;-72
2022/04/22 04:42:02;;;;;;;22.80;18.13;;;11.00;99.90;;;;;;5008263;28;20506;-71
2022/04/22 04:44:28;;;;;;;27.53;17.53;;;11.10;99.90;;;;;;5013403;28;20214;-72
2022/04/22 04:46:54;;;;;;;24.20;17.50;;;10.90;99.90;;;;;;5010838;28;20494;-71
2022/04/22 04:49:20;;;;;;;28.13;18.50;;;11.00;99.90;;;;;;5014696;28;20800;-71
2022/04/22 04:51:46;;;;;;;22.97;18.07;;;11.10;99.90;;;;;;5009846;28;20488;-72
2022/04/22 04:54:11;;;;;;;21.73;16.17;;;11.00;99.90;;;;;;5012892;28;20263;-72
2022/04/22 04:56:37;;;;;;;24.07;16.77;;;11.00;99.90;;;;;;5010036;28;20910;-72
2022/04/22 04:59:03;;;;;;;23.47;17.20;;;11.10;99.90;;;;;;5010702;28;20184;-71
2022/04/22 05:01:28;;;;;;;22.60;17.60;;;11.10;99.90;;;;;;5013226;28;20236;-72
2022/04/22 05:03:54;;;;;;;26.77;17.10;;;11.20;99.90;;;;;;5016409;28;20462;-71
2022/04/22 05:06:20;;;;;;;25.23;18.63;;;11.10;99.90;;;;;;5006846;28;20712;-71
2022/04/22 05:08:45;;;;;;;27.57;18.93;;;11.00;99.90;;;;;;5009349;28;20192;-72
2022/04/22 05:11:11;;;;;;;25.83;19.40;;;10.90;99.90;;;;;;5012667;28;20177;-72
2022/04/22 05:13:37;;;;;;;25.20;19.07;;;11.00;99.90;;;;;;5008585;28;20188;-72
2022/04/22 05:16:03;;;;;;;26.07;19.90;;;11.10;99.90;;;;;;5008157;28;20514;-71
2022/04/22 05:18:29;;;;;;;23.87;17.53;;;11.20;99.90;;;;;;5011922;28;20203;-71
2022/04/22 05:20:56;;;;;;;28.30;18.30;;;11.20;99.90;;;;;;5011809;28;20454;-71
2022/04/22 05:23:21;;;;;;;26.47;18.17;;;11.20;99.90;;;;;;5009426;28;20513;-71
2022/04/22 05:25:48;;;;;;;27.73;18.93;;;11.20;99.90;;;;;;5009663;28;21167;-71
2022/04/22 05:28:16;;;;;;;23.27;16.80;;;11.20;99.90;;;;;;5013975;28;20427;-70
2022/04/22 05:33:26;;;;;;;25.47;18.07;;;11.10;99.90;;;;;;5010602;28;20422;-72
2022/04/22 05:35:51;;;;;;;24.20;18.47;;;11.10;99.90;;;;;;5013157;28;20423;-72
2022/04/22 05:38:22;;;;;;;26.43;19.27;;;11.10;99.90;;;;;;5013175;28;20195;-72
2022/04/22 05:40:48;;;;;;;24.10;17.93;;;11.00;99.90;;;;;;5012485;28;20280;-71
2022/04/22 05:43:14;;;;;;;26.00;19.50;;;11.00;99.90;;;;;;5013371;28;20484;-71
2022/04/22 05:45:40;;;;;;;26.17;19.13;;;10.90;99.90;;;;;;5014760;28;20553;-70
2022/04/22 05:48:06;;;;;;;26.50;17.70;;;11.00;99.90;;;;;;5012718;28;20200;-70
2022/04/22 05:50:32;;;;;;;28.03;19.93;;;11.10;99.90;;;;;;5014997;28;20234;-71
2022/04/22 05:52:58;;;;;;;23.13;17.87;;;11.20;99.90;;;;;;5014639;28;21475;-71
2022/04/22 05:55:28;;;;;;;26.23;17.13;;;11.00;99.90;;;;;;5015982;28;20235;-70
2022/04/22 05:57:55;;;;;;;22.23;16.53;;;11.00;99.90;;;;;;5011817;28;20436;-70
2022/04/22 06:00:23;;;;;;;26.30;16.57;;;10.90;99.90;;;;;;5011519;28;20457;-72
2022/04/22 06:02:49;;;;;;;20.87;15.80;;;11.00;99.90;;;;;;5015951;28;20973;-72
2022/04/22 06:05:16;;;;;;;25.27;16.30;;;11.00;99.90;;;;;;5017140;28;20505;-71
2022/04/22 06:07:43;;;;;;;25.10;17.53;;;10.90;99.90;;;;;;5015223;28;20530;-71
2022/04/22 06:12:56;;;;;;;24.37;15.93;;;10.90;99.90;;;;;;5011631;28;20814;-71
2022/04/22 06:15:22;;;;;;;24.80;17.23;;;10.80;99.90;;;;;;5011207;28;20432;-72
2022/04/22 06:17:47;;;;;;;25.37;17.40;;;10.90;99.90;;;;;;5017326;28;20512;-72
2022/04/22 06:20:14;;;;;;;22.47;16.80;;;10.90;99.90;;;;;;5016319;28;20991;-71
2022/04/22 06:22:40;;;;;;;25.00;17.93;;;10.90;99.90;;;;;;5010902;28;20209;-71
2022/04/22 06:25:09;;;;;;;24.67;18.90;;;11.10;99.90;;;;;;5010546;28;20463;-71
2022/04/22 06:27:40;;;;;;;25.70;17.97;;;11.10;99.90;;;;;;5005853;28;20434;-71
2022/04/22 06:30:11;;;;;;;24.47;16.87;;;11.20;99.90;;;;;;5013377;28;20427;-71
2022/04/22 06:32:38;;;;;;;23.57;16.93;;;11.20;99.90;;;;;;5013848;28;20865;-72
2022/04/22 06:35:05;;;;;;;26.00;16.93;;;11.20;99.90;;;;;;5013976;28;20780;-71
2022/04/22 06:37:36;;;;;;;29.77;21.00;;;11.20;99.90;;;;;;5009794;28;20911;-70
2022/04/22 06:45:48;;;;;;;25.53;19.40;;;11.30;99.90;;;;;;5007626;28;20458;-71
2022/04/22 06:48:29;;;;;;;25.93;18.57;;;11.40;99.90;;;;;;5008751;28;20865;-70
2022/04/22 06:50:56;;;;;;;26.40;19.80;;;11.40;99.90;;;;;;5009849;28;21005;-71
2022/04/22 06:53:23;;;;;;;34.60;19.40;;;11.40;99.90;;;;;;5006968;28;20435;-70
2022/04/22 06:55:53;;;;;;;30.20;20.23;;;11.50;99.90;;;;;;5011006;28;20564;-70
2022/04/22 06:58:20;;;;;;;33.80;21.80;;;11.50;99.90;;;;;;5007131;28;20460;-70
2022/04/22 07:00:48;;;;;;;25.67;17.87;;;11.60;99.90;;;;;;5013334;28;20447;-69
2022/04/22 07:03:15;;;;;;;24.77;19.00;;;11.80;99.90;;;;;;5009668;28;20858;-70
2022/04/22 07:05:43;;;;;;;25.23;18.50;;;11.80;99.90;;;;;;5001841;28;20474;-71
2022/04/22 07:08:14;;;;;;;26.63;19.60;;;11.80;99.90;;;;;;5010437;28;20420;-69
2022/04/22 07:10:47;;;;;;;27.90;19.73;;;11.90;99.90;;;;;;5007744;28;20435;-70
2022/04/22 07:13:14;;;;;;;27.57;19.07;;;12.00;99.90;;;;;;5011392;28;20459;-70
2022/04/22 07:15:40;;;;;;;28.30;18.40;;;12.20;99.90;;;;;;5011371;28;20439;-70
2022/04/22 07:18:07;;;;;;;21.97;18.40;;;12.30;99.90;;;;;;5013336;28;20478;-71
2022/04/22 07:20:33;;;;;;;28.73;18.40;;;12.20;99.90;;;;;;5012596;28;20963;-70
2022/04/22 07:23:02;;;;;;;25.87;18.67;;;12.40;99.90;;;;;;5012452;28;20460;-71
2022/04/22 07:25:28;;;;;;;22.60;17.97;;;12.40;99.90;;;;;;5013081;28;20842;-70
2022/04/22 07:27:55;;;;;;;28.67;19.20;;;12.40;99.90;;;;;;5001721;28;23361;-70
2022/04/22 07:30:22;;;;;;;24.10;18.60;;;12.30;99.90;;;;;;5005879;28;20443;-70
2022/04/22 07:32:49;;;;;;;22.67;17.10;;;12.30;99.90;;;;;;5013061;28;20439;-71
2022/04/22 07:35:20;;;;;;;40.23;27.57;;;12.40;99.90;;;;;;5006467;28;20447;-70
2022/04/22 07:37:51;;;;;;;25.50;18.60;;;12.60;99.90;;;;;;5010069;28;20523;-71
2022/04/22 07:40:19;;;;;;;25.77;19.40;;;12.70;99.90;;;;;;5013753;28;20444;-71
2022/04/22 07:48:24;;;;;;;25.30;18.27;;;12.80;99.90;;;;;;5015815;28;20438;-71
2022/04/22 07:50:54;;;;;;;25.00;19.10;;;12.80;99.90;;;;;;5013806;28;20935;-70
2022/04/22 07:53:21;;;;;;;23.47;18.80;;;12.90;99.90;;;;;;5010356;28;20542;-71
2022/04/22 07:55:48;;;;;;;24.33;18.10;;;12.90;99.90;;;;;;5009734;28;20447;-71
2022/04/22 07:58:15;;;;;;;23.07;18.07;;;12.90;99.90;;;;;;5009061;28;20934;-72
2022/04/22 08:00:47;;;;;;;23.53;17.43;;;12.90;99.90;;;;;;4994409;28;20875;-70
2022/04/22 08:03:15;;;;;;;20.53;16.67;;;13.00;99.90;;;;;;5007608;28;20458;-70
2022/04/22 08:05:41;;;;;;;24.43;19.40;;;13.10;99.90;;;;;;5006808;28;21234;-70
2022/04/22 08:08:07;;;;;;;20.50;16.93;;;13.10;99.90;;;;;;5011422;28;20443;-71
2022/04/22 08:10:33;;;;;;;23.40;18.77;;;13.10;99.90;;;;;;5008894;28;20192;-70
2022/04/22 08:12:59;;;;;;;23.70;17.40;;;13.30;99.90;;;;;;5007386;28;21170;-70
2022/04/22 08:15:25;;;;;;;23.67;17.07;;;13.30;99.90;;;;;;5008164;28;20439;-71
2022/04/22 08:17:50;;;;;;;24.60;17.63;;;13.40;99.90;;;;;;5008737;28;20185;-69
2022/04/22 08:20:16;;;;;;;23.77;18.30;;;13.30;99.90;;;;;;5012390;28;20194;-70
2022/04/22 08:22:45;;;;;;;21.40;16.80;;;13.40;99.90;;;;;;5009350;28;20898;-70
2022/04/22 08:25:12;;;;;;;19.90;16.90;;;13.30;99.90;;;;;;5005527;28;20511;-71
2022/04/22 08:27:38;;;;;;;22.23;17.57;;;13.30;99.90;;;;;;5012467;28;21340;-71
2022/04/22 08:30:05;;;;;;;24.53;18.50;;;13.20;99.90;;;;;;5007090;28;20435;-70
2022/04/22 08:32:31;;;;;;;23.90;17.90;;;13.40;99.90;;;;;;5009724;28;20962;-70
2022/04/22 08:34:56;;;;;;;20.50;17.40;;;13.40;99.90;;;;;;5009120;28;20455;-70
2022/04/22 08:37:22;;;;;;;22.60;16.97;;;13.40;99.90;;;;;;5012289;28;20233;-70
2022/04/22 08:39:48;;;;;;;24.30;17.37;;;13.50;99.90;;;;;;5010723;28;20905;-71
2022/04/22 08:42:15;;;;;;;19.30;15.40;;;13.50;99.90;;;;;;5008748;28;20699;-71
2022/04/22 08:44:41;;;;;;;22.80;17.40;;;13.60;99.90;;;;;;5013221;28;20195;-71
2022/04/22 08:49:59;;;;;;;20.80;16.93;;;13.70;99.90;;;;;;5009248;28;20482;-71
2022/04/22 08:52:31;;;;;;;22.60;16.57;;;13.80;99.90;;;;;;5013301;28;20440;-71
2022/04/22 08:54:58;;;;;;;19.23;15.33;;;13.80;99.90;;;;;;5006174;28;20438;-71
2022/04/22 08:57:24;;;;;;;21.20;15.93;;;13.80;99.90;;;;;;5007611;28;20490;-71
2022/04/22 08:59:50;;;;;;;22.43;18.23;;;13.80;99.90;;;;;;5004721;28;20443;-70
2022/04/22 09:02:17;;;;;;;23.10;16.57;;;13.80;99.90;;;;;;5010432;28;20463;-73
2022/04/22 09:04:46;;;;;;;20.80;15.60;;;13.90;99.90;;;;;;5007545;28;20439;-72
2022/04/22 09:07:18;;;;;;;18.77;14.83;;;14.00;99.90;;;;;;5010556;28;20726;-72
2022/04/22 09:09:49;;;;;;;22.67;16.20;;;14.10;99.90;;;;;;5011716;28;20431;-72
2022/04/22 09:12:18;;;;;;;21.10;16.57;;;14.20;99.90;;;;;;5012771;28;20455;-71
2022/04/22 09:14:45;;;;;;;20.67;15.77;;;14.30;99.90;;;;;;5014860;28;20511;-73
2022/04/22 09:17:15;;;;;;;19.03;15.13;;;14.40;99.90;;;;;;5010441;28;20460;-70
2022/04/22 09:19:44;;;;;;;18.10;14.77;;;14.50;99.90;;;;;;5017462;28;20445;-71
2022/04/22 09:22:10;;;;;;;20.43;15.77;;;14.60;99.90;;;;;;5012858;28;20447;-74
2022/04/22 09:24:55;;;;;;;20.37;15.27;;;14.60;99.90;;;;;;5012642;28;20446;-74
2022/04/22 09:28:05;;;;;;;20.70;15.93;;;14.60;99.90;;;;;;5009634;28;20545;-70
2022/04/22 09:30:31;;;;;;;19.13;15.20;;;14.60;99.90;;;;;;4990263;28;20454;-70
2022/04/22 09:32:56;;;;;;;18.83;14.10;;;14.70;99.90;;;;;;5012908;28;20509;-72
2022/04/22 09:35:23;;;;;;;20.37;15.27;;;14.80;99.90;;;;;;5010686;28;21118;-70
2022/04/22 09:43:45;;;;;;;17.90;14.70;;;14.90;99.90;;;;;;5013956;28;20497;-70
2022/04/22 09:46:30;;;;;;;19.20;14.43;;;14.90;99.90;;;;;;5012581;28;20474;-70
2022/04/22 09:48:56;;;;;;;19.03;14.73;;;14.90;99.90;;;;;;5010831;28;20446;-72
2022/04/22 09:51:32;;;;;;;15.67;13.63;;;15.00;99.90;;;;;;5012934;28;20998;-72
2022/04/22 09:54:05;;;;;;;16.57;14.20;;;15.10;99.90;;;;;;5012886;28;20930;-73
2022/04/22 09:56:34;;;;;;;17.40;14.60;;;15.20;99.90;;;;;;5011209;28;20513;-71
2022/04/22 09:59:26;;;;;;;24.70;14.00;;;15.30;99.90;;;;;;5012183;28;20451;-71
2022/04/22 10:01:52;;;;;;;17.53;13.23;;;15.40;99.90;;;;;;5017050;28;20520;-70
2022/04/22 10:04:21;;;;;;;17.47;13.57;;;15.50;99.90;;;;;;5013062;28;20459;-74
2022/04/22 10:06:47;;;;;;;16.40;14.60;;;15.70;99.90;;;;;;5011994;28;20503;-71
2022/04/22 10:09:14;;;;;;;18.47;13.97;;;15.70;99.90;;;;;;5014117;28;20835;-73
2022/04/22 10:11:41;;;;;;;19.00;13.77;;;15.70;99.90;;;;;;5015278;28;20476;-71
2022/04/22 10:14:12;;;;;;;15.80;14.00;;;15.80;99.90;;;;;;5010552;28;20484;-73
2022/04/22 10:16:38;;;;;;;18.40;14.43;;;15.90;99.90;;;;;;5010356;28;20435;-72
2022/04/22 10:19:05;;;;;;;17.50;13.50;;;15.90;99.90;;;;;;5013468;28;20466;-72
2022/04/22 10:21:31;;;;;;;15.83;13.23;;;16.00;99.90;;;;;;5016164;28;20458;-70
2022/04/22 10:23:57;;;;;;;17.60;13.70;;;16.00;99.90;;;;;;5012110;28;21002;-70
2022/04/22 10:26:25;;;;;;;15.80;13.73;;;16.00;99.90;;;;;;5011348;28;20477;-74
2022/04/22 10:28:50;;;;;;;14.30;12.80;;;16.00;99.90;;;;;;5013250;28;20434;-73
2022/04/22 10:31:17;;;;;;;15.57;13.60;;;16.10;99.90;;;;;;5009022;28;20466;-70
2022/04/22 10:33:45;;;;;;;18.17;14.20;;;16.10;99.90;;;;;;5011593;28;20619;-73
2022/04/22 10:36:17;;;;;;;15.13;13.13;;;16.20;99.10;;;;;;5013544;28;20530;-74
2022/04/22 10:38:46;;;;;;;15.87;14.27;;;16.30;99.80;;;;;;5012215;28;20432;-70
2022/04/22 10:41:20;;;;;;;15.30;11.83;;;16.30;99.10;;;;;;5008484;28;20457;-70
2022/04/22 10:49:42;;;;;;;15.93;12.80;;;16.60;98.10;;;;;;5009291;28;20453;-73
2022/04/22 10:52:19;;;;;;;15.17;12.90;;;16.60;97.70;;;;;;5010741;28;20463;-74
2022/04/22 10:54:54;;;;;;;14.30;12.80;;;16.80;98.00;;;;;;5014813;28;20597;-73
2022/04/22 10:57:29;;;;;;;13.77;11.37;;;16.90;97.70;;;;;;5010419;28;21006;-71
2022/04/22 11:00:07;;;;;;;14.03;12.33;;;17.00;97.50;;;;;;5007907;28;20435;-74
2022/04/22 11:02:36;;;;;;;14.57;12.63;;;17.10;96.30;;;;;;5009147;28;20801;-70
2022/04/22 11:05:20;;;;;;;13.30;11.97;;;17.10;95.50;;;;;;5004682;28;20978;-75
2022/04/22 11:07:57;;;;;;;14.70;12.50;;;17.30;96.40;;;;;;5006145;28;20451;-70
2022/04/22 11:10:53;;;;;;;14.10;12.60;;;17.40;96.00;;;;;;5009628;28;20423;-73
2022/04/22 11:13:29;;;;;;;16.80;12.37;;;17.40;95.30;;;;;;5007132;28;20470;-73
2022/04/22 11:16:14;;;;;;;13.20;11.87;;;17.40;95.00;;;;;;5009526;28;20435;-71
2022/04/22 11:18:41;;;;;;;15.17;12.90;;;17.40;95.40;;;;;;5007659;28;20678;-73
2022/04/22 11:21:10;;;;;;;15.40;13.20;;;17.50;95.00;;;;;;5012091;28;20444;-70
2022/04/22 11:23:40;;;;;;;15.60;11.93;;;17.50;94.60;;;;;;5010510;28;20562;-71
2022/04/22 11:26:07;;;;;;;13.73;11.60;;;17.70;94.20;;;;;;5003151;28;20486;-74
2022/04/22 11:28:37;;;;;;;14.07;12.10;;;17.70;93.90;;;;;;5008407;28;20472;-74
2022/04/22 11:31:08;;;;;;;15.87;12.33;;;17.80;93.70;;;;;;5009766;28;20997;-72
2022/04/22 11:33:40;;;;;;;15.07;12.20;;;18.00;93.40;;;;;;5006302;28;20431;-71
2022/04/22 11:36:07;;;;;;;12.67;11.23;;;18.10;92.80;;;;;;5011340;28;21015;-71
2022/04/22 11:38:33;;;;;;;14.80;13.30;;;18.20;93.50;;;;;;5011803;28;20489;-73
2022/04/22 11:40:58;;;;;;;13.37;11.97;;;18.30;93.00;;;;;;5010200;28;20472;-73
2022/04/22 11:43:28;;;;;;;14.63;12.00;;;18.50;92.10;;;;;;5014380;28;20463;-71
2022/04/22 11:45:54;;;;;;;13.17;11.97;;;18.70;91.50;;;;;;5010745;28;20201;-74
2022/04/22 11:48:21;;;;;;;14.70;11.90;;;18.80;90.70;;;;;;5010210;28;20451;-75
2022/04/22 11:50:48;;;;;;;12.47;11.17;;;18.80;90.50;;;;;;5007733;28;20444;-73
2022/04/22 11:53:19;;;;;;;12.67;11.37;;;18.80;90.00;;;;;;5013925;28;20451;-71
2022/04/22 11:55:46;;;;;;;13.63;11.73;;;18.90;90.10;;;;;;5003257;28;20432;-72
2022/04/22 11:58:14;;;;;;;13.63;11.73;;;19.20;89.90;;;;;;5007642;28;20443;-74
2022/04/22 12:06:18;;;;;;;12.80;11.60;;;19.70;86.40;;;;;;5011723;28;20474;-71
2022/04/22 12:08:55;;;;;;;12.80;11.40;;;20.20;85.70;;;;;;5008419;28;20455;-71
2022/04/22 12:11:24;;;;;;;12.13;10.80;;;20.80;84.40;;;;;;5009019;28;20450;-70
2022/04/22 12:13:52;;;;;;;11.20;10.20;;;21.40;82.20;;;;;;5012925;28;20467;-70
2022/04/22 12:16:19;;;;;;;12.03;10.83;;;22.00;79.60;;;;;;5012067;28;20432;-71
2022/04/22 12:18:48;;;;;;;12.73;11.43;;;22.40;77.20;;;;;;5009763;28;20459;-71
2022/04/22 12:21:14;;;;;;;12.07;10.63;;;22.80;75.80;;;;;;5006376;28;21134;-70
2022/04/22 12:23:45;;;;;;;12.90;11.70;;;23.10;72.90;;;;;;5011039;28;20439;-71
2022/04/22 12:26:18;;;;;;;12.33;11.13;;;23.40;71.20;;;;;;5008906;28;20471;-71
2022/04/22 12:29:10;;;;;;;11.53;10.43;;;23.60;69.60;;;;;;5012148;28;21081;-72
2022/04/22 12:31:39;;;;;;;11.30;10.30;;;24.00;66.60;;;;;;5010674;28;20899;-72
2022/04/22 12:34:10;;;;;;;13.47;11.80;;;24.40;66.60;;;;;;5008738;28;20439;-70
2022/04/22 12:36:38;;;;;;;13.37;10.17;;;24.80;64.50;;;;;;5005818;28;20457;-72
2022/04/22 12:39:08;;;;;;;15.07;11.30;;;25.00;63.70;;;;;;5008124;28;20973;-71
2022/04/22 12:41:45;;;;;;;12.10;10.87;;;25.40;61.20;;;;;;5008321;28;20566;-72
2022/04/22 12:44:14;;;;;;;11.47;10.37;;;25.80;59.40;;;;;;5007975;28;20481;-71
2022/04/22 12:52:30;;;;;;;12.77;11.43;;;26.60;56.80;;;;;;4991061;28;20565;-73
2022/04/22 12:55:11;;;;;;;10.07;9.17;;;26.80;55.50;;;;;;4999509;28;20448;-71
2022/04/22 12:57:37;;;;;;;10.10;9.10;;;26.60;55.40;;;;;;5002915;28;20539;-75
2022/04/22 13:00:15;;;;;;;11.20;10.30;;;26.80;54.00;;;;;;5003864;28;23200;-74
2022/04/22 13:02:40;;;;;;;11.33;10.23;;;26.80;52.90;;;;;;4999044;28;20466;-73
2022/04/22 13:05:14;;;;;;;10.47;9.47;;;26.80;53.10;;;;;;5001209;28;20462;-70
2022/04/22 13:07:50;;;;;;;9.80;9.00;;;26.90;53.50;;;;;;5006421;28;20234;-71
2022/04/22 13:10:21;;;;;;;10.90;9.90;;;27.10;52.80;;;;;;5009936;28;20512;-75
2022/04/22 13:12:48;;;;;;;10.60;9.70;;;27.40;51.90;;;;;;5011910;28;20761;-70
2022/04/22 13:15:19;;;;;;;10.87;9.93;;;27.30;51.10;;;;;;5006885;28;20440;-72
2022/04/22 13:17:48;;;;;;;9.20;8.40;;;28.00;50.70;;;;;;5004695;28;20965;-71
2022/04/22 13:20:19;;;;;;;9.90;8.90;;;29.10;49.30;;;;;;5006946;28;20462;-76
2022/04/22 13:22:45;;;;;;;9.63;8.63;;;29.80;48.30;;;;;;5005995;28;20481;-73
2022/04/22 13:25:12;;;;;;;10.60;9.27;;;31.10;47.60;;;;;;5009104;28;20558;-73
2022/04/22 13:27:39;;;;;;;10.10;9.30;;;32.50;45.50;;;;;;5008745;28;20438;-75
2022/04/22 13:30:05;;;;;;;9.80;8.90;;;33.00;43.90;;;;;;5011736;28;20418;-75
2022/04/22 13:32:31;;;;;;;9.43;8.63;;;33.90;42.50;;;;;;5011441;28;20467;-74
2022/04/22 13:34:57;;;;;;;9.63;8.73;;;35.30;40.40;;;;;;5008929;28;20443;-72
2022/04/22 13:37:22;;;;;;;10.03;9.23;;;35.40;39.30;;;;;;5012309;28;20197;-72
2022/04/22 13:39:48;;;;;;;9.80;8.83;;;35.90;38.60;;;;;;4996109;28;20328;-75
2022/04/22 13:42:13;;;;;;;9.60;8.50;;;36.70;37.90;;;;;;5006148;28;20327;-73